Terminal Aerodrome Forecast
Issued by NWS

Home | Current Version | Previous Version | Text Only | Print | Product List | Glossary On
Versions: 1 2 3 4 5 6 7 8 9 10 11 12 13
000
FTUS44 KTSA 022340
TAFFYV
TAF
KFYV 022340Z 0300/0324 24010KT P6SM VCTS SCT030 BKN050CB
      TEMPO 0300/0302 -TSRA BKN028CB
     FM030200 19006KT P6SM VCTS BKN050CB
     FM030600 05004KT P6SM BKN080
     FM031300 VRB03KT 5SM -TSRA SCT015 BKN025CB
     FM032000 21005KT P6SM VCTS SCT025CB BKN035 PROB30 0320/0324 5SM
      -TSRA BKN025CB=

USA.gov is the U.S. government's official web portal to all federal, state and local government web resources and services.